Wainwright, AK

5:37 AM AKST on March 05, 2015 (GMT -0900)
Wainwright | Change Station
CLOSE
Current Station
Airport
Location: Wainwright,
Elevation: 39 ft
Nearby Weather Stations

Elev 39 ft 70.64 °N, 159.99 °W | Updated 16 hours ago

Cloudy
Cloudy
-11 °F
Feels Like -30 °F
N
10
Wind Variable Wind from East
Gusts mph

Today
High -- | Low -- °F
--% Chance of Precip.
Yesterday
High -- | Low -- °F
Precip. -- in
8:50 AM 6:54 PM
Full, 100% visible
Pressure 29.91 in
Visibility 10.0 miles
Clouds Clear
Windchill -30 °F
Dew Point -16 °F
Humidity 78%
Rainfall 0.00 in
Snow Depth Not available.
UV 1 out of 12
Pollen Not available.
Air Quality Not available.
Flu Activity Not available.
METAR PAWI 042153Z AUTO 26006KT 10SM CLR M23/M26 A2991 RMK SLP129 T12281256 TSNO $ VIA AUTODIAL

More Conditions Fewer Conditions

Pressure 29.91 in
Visibility 10.0 miles
Clouds Clear
Windchill -30 °F
Dew Point -16 °F
Humidity 78%
Rainfall 0.00 in
Snow Depth Not available.
UV 1 out of 12
Pollen Not available.
Air Quality Not available.
Flu Activity Not available.
METAR PAWI 042153Z AUTO 26006KT 10SM CLR M23/M26 A2991 RMK SLP129 T12281256 TSNO $ VIA AUTODIAL

More Conditions Fewer Conditions

10-Day Weather Forecast

Almanac

Astronomy

Mar. 05, 2015 Rise Set
Actual Time
Civil Twilight
Nautical Twilight
Astronomical Twilight
Moon
Length of Visible Light
Length of Day
Tomorrow will be .
, % of the Moon is Illuminated

Today's Extremes

State Highs State Lows

Community

WunderPhotos

Upload Photos

1,802,782 photos uploaded!

WunderBlogs® & News

Nearby

Air Quality

  Air Quality AQ Index Pollutant
Not available.

Snow Depth

Station Depth Elevation

Earthquake Activity

City Distance Mag. Time & Date
Minimum magnitude displayed is 2.5.

Coastal Water Temperatures

Place Temperature

Nearby Weather Stations